Marmet, WV

4:24 AM EDT en Octubre 02, 2014 (GMT -0400)
Raleigh County Memorial | Change Station
CLOSE
Current Station
Aeropuerto
Location: Beckley,
Altura: 2513 ft
Estaciones meteorológicas cercanas
Aviso en curso: Special Statement

Alt 2513 ft 37.79 °N, 81.12 °W | Updated 33 minutes ago

Niebla
Niebla
53 ° F
Sensación térmica 53 ° F
N
0
Viento Variable Viento desde Norte

Hoy
Alta -- | Baja -- ° F
--% Posibilidad de precipitaciones
Ayer
Alta -- | Baja -- ° F
Precip. -- pul
7:22 AM 7:07 PM
Cuarto creciente, 56% visible
Presión 30.05 pul
Visibilidad 5.0 Millas
Nubes Baja 5500 ft
Punto de rocío 50 ° F
Humedad 89%
Precipitaciones 0.00 pul
Espesor de la nieve No disponible.
UV 0 de una escala de 12
Polen 2.90 de una escala de 12
Calidad del aire No disponible.
Flu Activity No disponible.
METAR KBKW 020751Z AUTO 00000KT 5SM BR FEW055 12/10 A3011 RMK AO2 SLP175 T01170100 TSNO

More Conditions Fewer Conditions

Presión 30.05 pul
Visibilidad 5.0 Millas
Nubes Baja 5500 ft
Punto de rocío 50 ° F
Humedad 89%
Precipitaciones 0.00 pul
Espesor de la nieve No disponible.
UV 0 de una escala de 12
Polen 2.90 de una escala de 12
Calidad del aire No disponible.
Flu Activity No disponible.
METAR KBKW 020751Z AUTO 00000KT 5SM BR FEW055 12/10 A3011 RMK AO2 SLP175 T01170100 TSNO

More Conditions Fewer Conditions

10-Day Weather Forecast

Almanac

Astronomía

Oct. 02, 2014 Salida Puesta
Hora real 7:22 AM EDT 7:07 PM EDT
Crepúsculo civil 6:56 AM EDT 7:33 PM EDT
Crepúsculo náutico 6:25 AM EDT 8:04 PM EDT
Crepúsculo astronómico 5:55 AM EDT 8:35 PM EDT
Luna 3:08 PM EDT 12:43 AM EDT
Horas de luz 12h 37m
Horas de luz
11h 44m
Tomorrow will be 2m 27s shorter.
Cuarto creciente, 56% of the Moon is Illuminated
Hoy
Cuarto creciente
Oct 8
Luna llena
Oct 15
Cuarto menguante
Oct 23
Nueva
Oct 30
Cuarto creciente

Extremos de hoy

Máximos del estado Bajos del estado

Community

WunderPhotos

Upload Photos

1,758,196 ¡fotos cargadas!

WunderBlogs® & News

By Dr. Jeff Masters
Director of Meteorology, Weather Underground
By Kari Strenfel
Meteorologist, Weather Underground
By Christopher C. Burt
Weather Historian, Weather Underground
October 2, 2014
October 2, 2014
October 2, 2014

Nearby

Grosos de nieve

Estación Profundido Altura
No tenemos constancia de nieve nueva.

Actividad de terremotos

Ciudad Distance Mag. Tiempo y dato
No hay informes recientes de la actividad sísmica.
Magnitud mínima muestra es 2,5.

Temperaturas de aguas costeras

Lugar Temperatura
Sin partes meteorológicos de las estaciones

Estaciones meteorológicas cercanas